< Typhoon 199217 1992 Season Typhoon 199219 >
Typhoon 199218 (SIBYL)
General InformationTrack Information on Google MapsDetailed Wind InformationList of All Images || NewsDisaster Info.ResourceGoogle EarthGE AnimationAtom FeedGeoJSON
Detalied Best Track (Time Zone = UTC)
Year Month Day Hour Lat. Long. Pressure (hPa) Wind (kt) Class Image Chart
1992 9 4 06 19.0 165.0 1004 0 2 Image Chart
1992 9 4 12 19.5 165.5 1004 0 2 Image Chart
1992 9 4 18 20.0 166.0 1002 0 2 Image Chart
1992 9 5 00 20.3 166.0 1002 0 2 Image Chart
1992 9 5 06 20.6 166.4 1002 0 2 Image Chart
1992 9 5 12 21.5 167.5 1002 0 2 Image Chart
1992 9 5 18 21.8 167.4 1002 0 2 Image Chart
1992 9 6 00 22.2 166.6 1002 0 2 Image Chart
1992 9 6 06 22.4 166.3 1002 0 2 Image Chart
1992 9 6 12 22.4 166.1 1002 0 2 Image Chart
1992 9 6 18 22.0 166.0 1000 0 2 Image Chart
1992 9 7 00 21.4 166.2 1000 0 2 Image Chart
1992 9 7 06 20.8 166.9 998 0 2 Image Chart
1992 9 7 12 20.5 167.0 996 0 2 Image Chart
1992 9 7 18 20.0 167.3 994 0 2 Image Chart
1992 9 8 00 19.5 167.4 992 35 3 Image Chart
1992 9 8 06 19.1 167.1 990 40 3 Image Chart
1992 9 8 12 18.8 167.3 990 45 3 Image Chart
1992 9 8 18 18.8 167.6 985 50 4 Image Chart
1992 9 9 00 18.8 167.8 980 55 4 Image Chart
1992 9 9 06 19.2 167.7 975 60 4 Image Chart
1992 9 9 12 19.5 167.7 970 65 5 Image Chart
1992 9 9 18 20.0 167.7 960 75 5 Image Chart
1992 9 10 00 21.1 167.5 960 75 5 Image Chart
1992 9 10 06 22.7 166.4 960 75 5 Image Chart
1992 9 10 12 23.2 164.9 955 75 5 Image Chart
1992 9 10 18 23.8 163.5 950 80 5 Image Chart
1992 9 11 00 24.4 161.9 950 80 5 Image Chart
1992 9 11 06 24.9 160.8 940 85 5 Image Chart
1992 9 11 12 25.7 159.4 940 85 5 Image Chart
1992 9 11 18 26.3 158.4 940 85 5 Image Chart
1992 9 12 00 27.3 157.3 940 85 5 Image Chart
1992 9 12 06 28.5 156.2 940 85 5 Image Chart
1992 9 12 12 29.3 155.4 940 85 5 Image Chart
1992 9 12 18 30.1 154.7 950 80 5 Image Chart
1992 9 13 00 30.6 154.3 950 80 5 Image Chart
1992 9 13 06 31.3 153.9 955 75 5 Image Chart
1992 9 13 12 32.1 154.0 965 70 5 Image Chart
1992 9 13 18 33.1 154.4 975 60 4 Image Chart
1992 9 14 00 33.9 154.8 975 60 4 Image Chart
1992 9 14 06 35.0 155.8 980 55 4 Image Chart
1992 9 14 12 35.8 157.1 980 55 4 Image Chart
1992 9 14 18 36.5 158.0 985 50 4 Image Chart
1992 9 15 00 37.8 158.9 985 50 4 Image Chart
1992 9 15 06 38.8 160.3 985 45 3 Image Chart
1992 9 15 12 39.3 161.6 985 45 3 Image Chart
1992 9 15 18 39.9 163.0 980 0 6 Image Chart
1992 9 16 00 40.2 164.3 976 0 6 Image Chart
1992 9 16 06 40.6 166.0 968 0 6 Image Chart
1992 9 16 12 40.9 167.5 964 0 6 Image Chart
1992 9 16 18 41.3 168.9 966 0 6 Image Chart
1992 9 17 00 41.5 170.0 968 0 6 Image Chart
1992 9 17 06 41.6 171.5 970 0 6 Image Chart
1992 9 17 12 41.7 172.7 972 0 6 Image Chart
1992 9 17 18 41.9 174.0 976 0 6 Image Chart
1992 9 18 00 42.0 175.5 980 0 6 Image Chart
1992 9 18 06 42.3 177.0 982 0 6 Image Chart
1992 9 18 12 42.8 178.0 984 0 6 Image Chart
1992 9 18 18 43.4 179.4 984 0 6 Image Chart
1992 9 19 00 44.5 181.0 986 0 6 Image Chart
Japan Meteorological Agency Best Track Data | Correction Date : 1992-12-25
< Typhoon 199217 1992 Season Typhoon 199219 >

Help